sensor_id;sensor_type;location;lat;lon;timestamp;P1;durP1;ratioP1;P2;durP2;ratioP2
6163;SDS011;3114;48.362;10.994;2023-04-25T00:00:47;3.88;;;1.55;;
6163;SDS011;3114;48.362;10.994;2023-04-25T00:03:15;3.33;;;1.40;;
6163;SDS011;3114;48.362;10.994;2023-04-25T00:05:43;2.90;;;1.83;;
6163;SDS011;3114;48.362;10.994;2023-04-25T00:08:11;2.67;;;1.80;;
6163;SDS011;3114;48.362;10.994;2023-04-25T00:10:38;2.65;;;1.60;;
6163;SDS011;3114;48.362;10.994;2023-04-25T00:13:05;2.60;;;1.88;;
6163;SDS011;3114;48.362;10.994;2023-04-25T00:15:33;3.67;;;1.90;;
6163;SDS011;3114;48.362;10.994;2023-04-25T00:18:01;2.03;;;1.70;;
6163;SDS011;3114;48.362;10.994;2023-04-25T00:20:28;4.10;;;1.90;;
6163;SDS011;3114;48.362;10.994;2023-04-25T00:22:55;2.83;;;2.10;;
6163;SDS011;3114;48.362;10.994;2023-04-25T00:25:23;2.78;;;1.88;;
6163;SDS011;3114;48.362;10.994;2023-04-25T00:27:50;4.28;;;2.08;;
6163;SDS011;3114;48.362;10.994;2023-04-25T00:30:17;2.40;;;1.88;;
6163;SDS011;3114;48.362;10.994;2023-04-25T00:32:44;3.80;;;2.20;;
6163;SDS011;3114;48.362;10.994;2023-04-25T00:35:11;2.17;;;1.75;;
6163;SDS011;3114;48.362;10.994;2023-04-25T00:37:38;3.20;;;1.85;;
6163;SDS011;3114;48.362;10.994;2023-04-25T00:40:05;1.98;;;1.67;;
6163;SDS011;3114;48.362;10.994;2023-04-25T00:42:35;2.20;;;1.88;;
6163;SDS011;3114;48.362;10.994;2023-04-25T00:45:03;3.95;;;2.22;;
6163;SDS011;3114;48.362;10.994;2023-04-25T00:47:33;3.35;;;2.08;;
6163;SDS011;3114;48.362;10.994;2023-04-25T00:50:02;3.55;;;2.30;;
6163;SDS011;3114;48.362;10.994;2023-04-25T00:52:29;3.33;;;2.22;;
6163;SDS011;3114;48.362;10.994;2023-04-25T00:54:56;2.83;;;2.00;;
6163;SDS011;3114;48.362;10.994;2023-04-25T00:57:23;3.60;;;2.10;;
6163;SDS011;3114;48.362;10.994;2023-04-25T00:59:52;2.90;;;2.08;;
6163;SDS011;3114;48.362;10.994;2023-04-25T01:02:20;1.77;;;1.67;;
6163;SDS011;3114;48.362;10.994;2023-04-25T01:04:47;3.67;;;2.25;;
6163;SDS011;3114;48.362;10.994;2023-04-25T01:07:14;3.53;;;2.10;;
6163;SDS011;3114;48.362;10.994;2023-04-25T01:09:41;2.90;;;2.13;;
6163;SDS011;3114;48.362;10.994;2023-04-25T01:12:08;5.72;;;2.25;;
6163;SDS011;3114;48.362;10.994;2023-04-25T01:14:35;2.47;;;2.13;;
6163;SDS011;3114;48.362;10.994;2023-04-25T01:17:04;4.22;;;2.15;;
6163;SDS011;3114;48.362;10.994;2023-04-25T01:19:32;4.40;;;2.30;;
6163;SDS011;3114;48.362;10.994;2023-04-25T01:22:01;4.00;;;2.08;;
6163;SDS011;3114;48.362;10.994;2023-04-25T01:24:28;2.95;;;2.00;;
6163;SDS011;3114;48.362;10.994;2023-04-25T01:26:56;3.28;;;2.10;;
6163;SDS011;3114;48.362;10.994;2023-04-25T01:29:25;2.95;;;1.80;;
6163;SDS011;3114;48.362;10.994;2023-04-25T01:31:53;2.67;;;1.95;;
6163;SDS011;3114;48.362;10.994;2023-04-25T01:34:21;2.15;;;1.92;;
6163;SDS011;3114;48.362;10.994;2023-04-25T01:36:48;2.85;;;2.03;;
6163;SDS011;3114;48.362;10.994;2023-04-25T01:39:18;4.18;;;2.08;;
6163;SDS011;3114;48.362;10.994;2023-04-25T01:41:45;3.17;;;2.30;;
6163;SDS011;3114;48.362;10.994;2023-04-25T01:44:12;3.17;;;1.70;;
6163;SDS011;3114;48.362;10.994;2023-04-25T01:46:39;2.60;;;1.80;;
6163;SDS011;3114;48.362;10.994;2023-04-25T01:49:06;2.30;;;1.90;;
6163;SDS011;3114;48.362;10.994;2023-04-25T01:51:33;2.47;;;2.28;;
6163;SDS011;3114;48.362;10.994;2023-04-25T01:54:00;3.33;;;2.00;;
6163;SDS011;3114;48.362;10.994;2023-04-25T01:56:31;2.65;;;1.95;;
6163;SDS011;3114;48.362;10.994;2023-04-25T01:58:59;2.40;;;1.90;;
6163;SDS011;3114;48.362;10.994;2023-04-25T02:01:26;3.20;;;2.08;;
6163;SDS011;3114;48.362;10.994;2023-04-25T02:03:53;3.88;;;2.00;;
6163;SDS011;3114;48.362;10.994;2023-04-25T02:06:19;2.88;;;2.20;;
6163;SDS011;3114;48.362;10.994;2023-04-25T02:08:46;2.33;;;1.67;;
6163;SDS011;3114;48.362;10.994;2023-04-25T02:11:13;3.47;;;1.83;;
6163;SDS011;3114;48.362;10.994;2023-04-25T02:13:42;2.97;;;1.92;;
6163;SDS011;3114;48.362;10.994;2023-04-25T02:16:08;2.25;;;1.90;;
6163;SDS011;3114;48.362;10.994;2023-04-25T02:18:36;2.25;;;2.05;;
6163;SDS011;3114;48.362;10.994;2023-04-25T02:21:04;3.97;;;2.05;;
6163;SDS011;3114;48.362;10.994;2023-04-25T02:23:31;3.15;;;1.95;;
6163;SDS011;3114;48.362;10.994;2023-04-25T02:25:58;3.53;;;2.03;;
6163;SDS011;3114;48.362;10.994;2023-04-25T02:28:25;1.88;;;1.70;;
6163;SDS011;3114;48.362;10.994;2023-04-25T02:30:53;2.42;;;1.90;;
6163;SDS011;3114;48.362;10.994;2023-04-25T02:33:20;2.85;;;1.90;;
6163;SDS011;3114;48.362;10.994;2023-04-25T02:35:47;2.72;;;1.77;;
6163;SDS011;3114;48.362;10.994;2023-04-25T02:38:13;5.05;;;2.08;;
6163;SDS011;3114;48.362;10.994;2023-04-25T02:40:40;3.10;;;1.98;;
6163;SDS011;3114;48.362;10.994;2023-04-25T02:43:07;3.47;;;2.08;;
6163;SDS011;3114;48.362;10.994;2023-04-25T02:45:34;3.05;;;1.83;;
6163;SDS011;3114;48.362;10.994;2023-04-25T02:48:04;4.50;;;1.95;;
6163;SDS011;3114;48.362;10.994;2023-04-25T02:50:31;3.55;;;1.90;;
6163;SDS011;3114;48.362;10.994;2023-04-25T02:52:58;3.65;;;1.75;;
6163;SDS011;3114;48.362;10.994;2023-04-25T02:55:25;3.78;;;1.77;;
6163;SDS011;3114;48.362;10.994;2023-04-25T02:57:52;3.92;;;2.10;;
6163;SDS011;3114;48.362;10.994;2023-04-25T03:00:20;2.25;;;1.77;;
6163;SDS011;3114;48.362;10.994;2023-04-25T03:02:47;3.58;;;1.70;;
6163;SDS011;3114;48.362;10.994;2023-04-25T03:05:16;3.67;;;2.10;;
6163;SDS011;3114;48.362;10.994;2023-04-25T03:07:42;3.42;;;1.98;;
6163;SDS011;3114;48.362;10.994;2023-04-25T03:10:10;2.47;;;1.75;;
6163;SDS011;3114;48.362;10.994;2023-04-25T03:12:38;2.17;;;1.83;;
6163;SDS011;3114;48.362;10.994;2023-04-25T03:15:05;3.03;;;1.75;;
6163;SDS011;3114;48.362;10.994;2023-04-25T03:17:32;5.22;;;2.15;;
6163;SDS011;3114;48.362;10.994;2023-04-25T03:19:59;2.50;;;1.73;;
6163;SDS011;3114;48.362;10.994;2023-04-25T03:22:28;2.92;;;1.85;;
6163;SDS011;3114;48.362;10.994;2023-04-25T03:24:54;3.53;;;1.92;;
6163;SDS011;3114;48.362;10.994;2023-04-25T03:27:21;3.28;;;2.00;;
6163;SDS011;3114;48.362;10.994;2023-04-25T03:29:48;5.20;;;2.28;;
6163;SDS011;3114;48.362;10.994;2023-04-25T03:32:15;2.33;;;2.03;;
6163;SDS011;3114;48.362;10.994;2023-04-25T03:34:41;6.13;;;2.28;;
6163;SDS011;3114;48.362;10.994;2023-04-25T03:37:08;2.75;;;2.40;;
6163;SDS011;3114;48.362;10.994;2023-04-25T03:39:36;2.05;;;1.77;;
6163;SDS011;3114;48.362;10.994;2023-04-25T03:42:03;2.90;;;2.05;;
6163;SDS011;3114;48.362;10.994;2023-04-25T03:44:30;4.00;;;2.03;;
6163;SDS011;3114;48.362;10.994;2023-04-25T03:46:59;4.32;;;2.70;;
6163;SDS011;3114;48.362;10.994;2023-04-25T03:49:26;6.20;;;2.33;;
6163;SDS011;3114;48.362;10.994;2023-04-25T03:51:53;3.47;;;2.03;;
6163;SDS011;3114;48.362;10.994;2023-04-25T03:54:20;3.78;;;2.13;;
6163;SDS011;3114;48.362;10.994;2023-04-25T03:56:48;3.53;;;2.20;;
6163;SDS011;3114;48.362;10.994;2023-04-25T03:59:15;2.05;;;1.85;;
6163;SDS011;3114;48.362;10.994;2023-04-25T04:01:42;4.18;;;1.88;;
6163;SDS011;3114;48.362;10.994;2023-04-25T04:04:08;2.72;;;1.60;;
6163;SDS011;3114;48.362;10.994;2023-04-25T04:06:35;2.88;;;1.80;;
6163;SDS011;3114;48.362;10.994;2023-04-25T04:09:02;2.70;;;1.67;;
6163;SDS011;3114;48.362;10.994;2023-04-25T04:11:30;3.60;;;1.75;;
6163;SDS011;3114;48.362;10.994;2023-04-25T04:13:58;2.00;;;1.60;;
6163;SDS011;3114;48.362;10.994;2023-04-25T04:16:25;1.73;;;1.60;;
6163;SDS011;3114;48.362;10.994;2023-04-25T04:18:52;3.95;;;1.80;;
6163;SDS011;3114;48.362;10.994;2023-04-25T04:21:19;4.88;;;1.77;;
6163;SDS011;3114;48.362;10.994;2023-04-25T04:23:46;3.03;;;1.65;;
6163;SDS011;3114;48.362;10.994;2023-04-25T04:26:13;5.13;;;2.20;;
6163;SDS011;3114;48.362;10.994;2023-04-25T04:28:41;2.70;;;1.70;;
6163;SDS011;3114;48.362;10.994;2023-04-25T04:31:10;3.50;;;1.85;;
6163;SDS011;3114;48.362;10.994;2023-04-25T04:33:37;2.38;;;1.60;;
6163;SDS011;3114;48.362;10.994;2023-04-25T04:36:06;2.97;;;1.63;;
6163;SDS011;3114;48.362;10.994;2023-04-25T04:38:33;5.00;;;1.77;;
6163;SDS011;3114;48.362;10.994;2023-04-25T04:41:01;3.05;;;2.10;;
6163;SDS011;3114;48.362;10.994;2023-04-25T04:43:28;2.15;;;1.80;;
6163;SDS011;3114;48.362;10.994;2023-04-25T04:45:57;3.42;;;1.85;;
6163;SDS011;3114;48.362;10.994;2023-04-25T04:48:27;5.13;;;2.03;;
6163;SDS011;3114;48.362;10.994;2023-04-25T04:50:57;2.65;;;1.40;;
6163;SDS011;3114;48.362;10.994;2023-04-25T04:53:24;5.05;;;1.70;;
6163;SDS011;3114;48.362;10.994;2023-04-25T04:55:51;3.15;;;1.48;;
6163;SDS011;3114;48.362;10.994;2023-04-25T04:58:18;3.33;;;1.70;;
6163;SDS011;3114;48.362;10.994;2023-04-25T05:00:45;3.95;;;1.40;;
6163;SDS011;3114;48.362;10.994;2023-04-25T05:03:12;2.58;;;1.35;;
6163;SDS011;3114;48.362;10.994;2023-04-25T05:05:40;5.18;;;1.63;;
6163;SDS011;3114;48.362;10.994;2023-04-25T05:08:07;3.35;;;1.45;;
6163;SDS011;3114;48.362;10.994;2023-04-25T05:10:34;2.58;;;1.50;;
6163;SDS011;3114;48.362;10.994;2023-04-25T05:13:01;1.30;;;1.20;;
6163;SDS011;3114;48.362;10.994;2023-04-25T05:15:28;2.17;;;1.52;;
6163;SDS011;3114;48.362;10.994;2023-04-25T05:17:54;2.15;;;1.30;;
6163;SDS011;3114;48.362;10.994;2023-04-25T05:20:21;2.20;;;1.52;;
6163;SDS011;3114;48.362;10.994;2023-04-25T05:22:49;1.80;;;1.38;;
6163;SDS011;3114;48.362;10.994;2023-04-25T05:25:16;3.47;;;1.55;;
6163;SDS011;3114;48.362;10.994;2023-04-25T05:27:43;4.28;;;1.70;;
6163;SDS011;3114;48.362;10.994;2023-04-25T05:30:11;1.67;;;1.30;;
6163;SDS011;3114;48.362;10.994;2023-04-25T05:32:37;4.38;;;1.70;;
6163;SDS011;3114;48.362;10.994;2023-04-25T05:35:05;2.20;;;1.60;;
6163;SDS011;3114;48.362;10.994;2023-04-25T05:37:33;2.65;;;1.60;;
6163;SDS011;3114;48.362;10.994;2023-04-25T05:40:02;3.67;;;1.50;;
6163;SDS011;3114;48.362;10.994;2023-04-25T05:42:31;5.20;;;1.77;;
6163;SDS011;3114;48.362;10.994;2023-04-25T05:44:58;2.22;;;1.73;;
6163;SDS011;3114;48.362;10.994;2023-04-25T05:47:25;5.38;;;2.30;;
6163;SDS011;3114;48.362;10.994;2023-04-25T05:49:52;7.10;;;1.92;;
6163;SDS011;3114;48.362;10.994;2023-04-25T05:52:22;3.55;;;1.92;;
6163;SDS011;3114;48.362;10.994;2023-04-25T05:54:49;6.40;;;2.05;;
6163;SDS011;3114;48.362;10.994;2023-04-25T05:57:21;2.97;;;1.80;;
6163;SDS011;3114;48.362;10.994;2023-04-25T05:59:49;3.22;;;1.92;;
6163;SDS011;3114;48.362;10.994;2023-04-25T06:02:16;2.30;;;1.70;;
6163;SDS011;3114;48.362;10.994;2023-04-25T06:04:43;3.50;;;1.73;;
6163;SDS011;3114;48.362;10.994;2023-04-25T06:07:10;5.32;;;2.00;;
6163;SDS011;3114;48.362;10.994;2023-04-25T06:09:38;3.20;;;1.75;;
6163;SDS011;3114;48.362;10.994;2023-04-25T06:12:05;2.38;;;1.90;;
6163;SDS011;3114;48.362;10.994;2023-04-25T06:14:33;3.40;;;1.80;;
6163;SDS011;3114;48.362;10.994;2023-04-25T06:17:00;3.85;;;1.67;;
6163;SDS011;3114;48.362;10.994;2023-04-25T06:19:31;4.18;;;2.03;;
6163;SDS011;3114;48.362;10.994;2023-04-25T06:21:58;2.42;;;1.90;;
6163;SDS011;3114;48.362;10.994;2023-04-25T06:24:25;5.78;;;2.13;;
6163;SDS011;3114;48.362;10.994;2023-04-25T06:26:52;3.95;;;1.92;;
6163;SDS011;3114;48.362;10.994;2023-04-25T06:29:18;2.80;;;1.70;;
6163;SDS011;3114;48.362;10.994;2023-04-25T06:31:47;2.78;;;1.77;;
6163;SDS011;3114;48.362;10.994;2023-04-25T06:34:14;6.40;;;2.55;;
6163;SDS011;3114;48.362;10.994;2023-04-25T06:36:41;5.80;;;1.63;;
6163;SDS011;3114;48.362;10.994;2023-04-25T06:39:09;3.20;;;1.70;;
6163;SDS011;3114;48.362;10.994;2023-04-25T06:41:36;3.90;;;1.65;;
6163;SDS011;3114;48.362;10.994;2023-04-25T06:44:03;2.92;;;1.52;;
6163;SDS011;3114;48.362;10.994;2023-04-25T06:46:29;3.85;;;1.40;;
6163;SDS011;3114;48.362;10.994;2023-04-25T06:48:58;1.58;;;1.35;;
6163;SDS011;3114;48.362;10.994;2023-04-25T06:51:25;2.30;;;1.58;;
6163;SDS011;3114;48.362;10.994;2023-04-25T06:53:54;2.63;;;1.40;;
6163;SDS011;3114;48.362;10.994;2023-04-25T06:56:21;2.83;;;1.52;;
6163;SDS011;3114;48.362;10.994;2023-04-25T06:58:48;2.88;;;1.92;;
6163;SDS011;3114;48.362;10.994;2023-04-25T07:01:15;2.42;;;1.60;;
6163;SDS011;3114;48.362;10.994;2023-04-25T07:03:42;2.40;;;1.35;;
6163;SDS011;3114;48.362;10.994;2023-04-25T07:06:10;3.72;;;1.42;;
6163;SDS011;3114;48.362;10.994;2023-04-25T07:08:37;2.10;;;1.17;;
6163;SDS011;3114;48.362;10.994;2023-04-25T07:11:03;2.60;;;1.57;;
6163;SDS011;3114;48.362;10.994;2023-04-25T07:13:30;2.17;;;1.33;;
6163;SDS011;3114;48.362;10.994;2023-04-25T07:15:57;1.90;;;1.30;;
6163;SDS011;3114;48.362;10.994;2023-04-25T07:18:25;2.10;;;1.30;;
6163;SDS011;3114;48.362;10.994;2023-04-25T07:20:51;1.23;;;0.98;;
6163;SDS011;3114;48.362;10.994;2023-04-25T07:23:20;3.13;;;1.40;;
6163;SDS011;3114;48.362;10.994;2023-04-25T07:25:47;3.08;;;1.27;;
6163;SDS011;3114;48.362;10.994;2023-04-25T07:28:13;2.83;;;1.30;;
6163;SDS011;3114;48.362;10.994;2023-04-25T07:30:40;2.78;;;1.50;;
6163;SDS011;3114;48.362;10.994;2023-04-25T07:33:07;2.13;;;1.30;;
6163;SDS011;3114;48.362;10.994;2023-04-25T07:35:34;1.65;;;1.27;;
6163;SDS011;3114;48.362;10.994;2023-04-25T07:38:01;1.92;;;1.15;;
6163;SDS011;3114;48.362;10.994;2023-04-25T07:40:29;2.65;;;1.58;;
6163;SDS011;3114;48.362;10.994;2023-04-25T07:42:56;5.20;;;1.55;;
6163;SDS011;3114;48.362;10.994;2023-04-25T07:45:23;2.17;;;0.93;;
6163;SDS011;3114;48.362;10.994;2023-04-25T07:47:50;2.65;;;1.20;;
6163;SDS011;3114;48.362;10.994;2023-04-25T07:50:17;1.63;;;1.00;;
6163;SDS011;3114;48.362;10.994;2023-04-25T07:52:44;2.20;;;1.20;;
6163;SDS011;3114;48.362;10.994;2023-04-25T07:55:11;1.15;;;0.90;;
6163;SDS011;3114;48.362;10.994;2023-04-25T07:57:40;2.33;;;1.40;;
6163;SDS011;3114;48.362;10.994;2023-04-25T08:00:07;3.17;;;1.48;;
6163;SDS011;3114;48.362;10.994;2023-04-25T08:02:36;2.95;;;1.70;;
6163;SDS011;3114;48.362;10.994;2023-04-25T08:05:03;1.30;;;1.20;;
6163;SDS011;3114;48.362;10.994;2023-04-25T08:07:33;3.97;;;2.25;;
6163;SDS011;3114;48.362;10.994;2023-04-25T08:10:00;3.63;;;1.98;;
6163;SDS011;3114;48.362;10.994;2023-04-25T08:12:27;1.55;;;1.45;;
6163;SDS011;3114;48.362;10.994;2023-04-25T08:14:55;3.92;;;1.80;;
6163;SDS011;3114;48.362;10.994;2023-04-25T08:17:23;2.97;;;1.67;;
6163;SDS011;3114;48.362;10.994;2023-04-25T08:19:50;3.97;;;1.90;;
6163;SDS011;3114;48.362;10.994;2023-04-25T08:22:16;3.58;;;1.50;;
6163;SDS011;3114;48.362;10.994;2023-04-25T08:24:43;2.10;;;1.67;;
6163;SDS011;3114;48.362;10.994;2023-04-25T08:27:10;2.88;;;1.42;;
6163;SDS011;3114;48.362;10.994;2023-04-25T08:29:37;1.98;;;1.60;;
6163;SDS011;3114;48.362;10.994;2023-04-25T08:32:05;2.40;;;1.50;;
6163;SDS011;3114;48.362;10.994;2023-04-25T08:34:32;1.92;;;1.35;;
6163;SDS011;3114;48.362;10.994;2023-04-25T08:36:59;2.88;;;1.23;;
6163;SDS011;3114;48.362;10.994;2023-04-25T08:39:26;1.63;;;1.20;;
6163;SDS011;3114;48.362;10.994;2023-04-25T08:41:53;1.90;;;1.30;;
6163;SDS011;3114;48.362;10.994;2023-04-25T08:44:20;2.35;;;1.10;;
6163;SDS011;3114;48.362;10.994;2023-04-25T08:46:48;2.45;;;1.55;;
6163;SDS011;3114;48.362;10.994;2023-04-25T08:49:17;2.50;;;1.33;;
6163;SDS011;3114;48.362;10.994;2023-04-25T08:51:45;1.35;;;1.25;;
6163;SDS011;3114;48.362;10.994;2023-04-25T08:54:13;3.55;;;1.40;;
6163;SDS011;3114;48.362;10.994;2023-04-25T08:56:41;1.13;;;1.02;;
6163;SDS011;3114;48.362;10.994;2023-04-25T08:59:11;2.55;;;1.02;;
6163;SDS011;3114;48.362;10.994;2023-04-25T09:01:38;1.83;;;1.30;;
6163;SDS011;3114;48.362;10.994;2023-04-25T09:04:05;3.97;;;1.42;;
6163;SDS011;3114;48.362;10.994;2023-04-25T09:06:33;1.48;;;1.20;;
6163;SDS011;3114;48.362;10.994;2023-04-25T09:09:02;6.57;;;1.23;;
6163;SDS011;3114;48.362;10.994;2023-04-25T09:11:30;2.72;;;1.20;;
6163;SDS011;3114;48.362;10.994;2023-04-25T09:14:09;2.90;;;1.23;;
6163;SDS011;3114;48.362;10.994;2023-04-25T09:16:47;1.38;;;1.17;;
6163;SDS011;3114;48.362;10.994;2023-04-25T09:19:28;1.33;;;1.08;;
6163;SDS011;3114;48.362;10.994;2023-04-25T09:21:58;2.60;;;1.45;;
6163;SDS011;3114;48.362;10.994;2023-04-25T09:24:32;2.40;;;1.10;;
6163;SDS011;3114;48.362;10.994;2023-04-25T09:27:02;2.75;;;1.33;;
6163;SDS011;3114;48.362;10.994;2023-04-25T09:29:30;4.10;;;1.30;;
6163;SDS011;3114;48.362;10.994;2023-04-25T09:34:41;2.58;;;1.10;;
6163;SDS011;3114;48.362;10.994;2023-04-25T09:37:10;2.35;;;1.50;;
6163;SDS011;3114;48.362;10.994;2023-04-25T09:39:38;6.18;;;1.95;;
6163;SDS011;3114;48.362;10.994;2023-04-25T09:42:05;3.15;;;1.50;;
6163;SDS011;3114;48.362;10.994;2023-04-25T09:44:32;2.53;;;1.50;;
6163;SDS011;3114;48.362;10.994;2023-04-25T09:46:59;1.50;;;1.30;;
6163;SDS011;3114;48.362;10.994;2023-04-25T09:49:28;1.45;;;1.17;;
6163;SDS011;3114;48.362;10.994;2023-04-25T09:51:55;2.70;;;1.02;;
6163;SDS011;3114;48.362;10.994;2023-04-25T09:54:24;2.40;;;1.25;;
6163;SDS011;3114;48.362;10.994;2023-04-25T09:56:51;1.42;;;1.13;;
6163;SDS011;3114;48.362;10.994;2023-04-25T09:59:20;1.95;;;1.15;;
6163;SDS011;3114;48.362;10.994;2023-04-25T10:01:48;1.20;;;1.10;;
6163;SDS011;3114;48.362;10.994;2023-04-25T10:04:16;1.52;;;1.30;;
6163;SDS011;3114;48.362;10.994;2023-04-25T10:06:47;1.20;;;1.00;;
6163;SDS011;3114;48.362;10.994;2023-04-25T10:09:15;1.73;;;1.20;;
6163;SDS011;3114;48.362;10.994;2023-04-25T10:11:46;1.90;;;1.27;;
6163;SDS011;3114;48.362;10.994;2023-04-25T10:14:13;2.45;;;1.20;;
6163;SDS011;3114;48.362;10.994;2023-04-25T10:16:42;1.52;;;1.20;;
6163;SDS011;3114;48.362;10.994;2023-04-25T10:19:09;1.63;;;1.10;;
6163;SDS011;3114;48.362;10.994;2023-04-25T10:21:36;0.80;;;0.80;;
6163;SDS011;3114;48.362;10.994;2023-04-25T10:24:11;2.50;;;0.80;;
6163;SDS011;3114;48.362;10.994;2023-04-25T10:26:39;0.75;;;0.70;;
6163;SDS011;3114;48.362;10.994;2023-04-25T10:29:08;0.60;;;0.60;;
6163;SDS011;3114;48.362;10.994;2023-04-25T10:31:44;5.22;;;1.10;;
6163;SDS011;3114;48.362;10.994;2023-04-25T10:34:12;1.00;;;0.90;;
6163;SDS011;3114;48.362;10.994;2023-04-25T10:36:39;1.40;;;0.90;;
6163;SDS011;3114;48.362;10.994;2023-04-25T10:39:06;1.00;;;0.90;;
6163;SDS011;3114;48.362;10.994;2023-04-25T10:41:45;1.23;;;1.20;;
6163;SDS011;3114;48.362;10.994;2023-04-25T10:44:14;1.40;;;0.80;;
6163;SDS011;3114;48.362;10.994;2023-04-25T10:46:41;0.68;;;0.68;;
6163;SDS011;3114;48.362;10.994;2023-04-25T10:49:10;0.52;;;0.52;;
6163;SDS011;3114;48.362;10.994;2023-04-25T10:51:58;2.25;;;0.47;;
6163;SDS011;3114;48.362;10.994;2023-04-25T10:54:41;0.95;;;0.55;;
6163;SDS011;3114;48.362;10.994;2023-04-25T10:59:58;0.70;;;0.70;;
6163;SDS011;3114;48.362;10.994;2023-04-25T11:02:26;3.10;;;0.98;;
6163;SDS011;3114;48.362;10.994;2023-04-25T11:04:54;1.02;;;0.85;;
6163;SDS011;3114;48.362;10.994;2023-04-25T11:07:23;0.98;;;0.90;;
6163;SDS011;3114;48.362;10.994;2023-04-25T11:10:02;1.40;;;0.45;;
6163;SDS011;3114;48.362;10.994;2023-04-25T11:12:30;1.73;;;0.70;;
6163;SDS011;3114;48.362;10.994;2023-04-25T11:15:03;1.45;;;1.00;;
6163;SDS011;3114;48.362;10.994;2023-04-25T11:17:31;1.30;;;0.95;;
6163;SDS011;3114;48.362;10.994;2023-04-25T11:19:59;3.28;;;0.90;;
6163;SDS011;3114;48.362;10.994;2023-04-25T11:22:26;2.65;;;1.23;;
6163;SDS011;3114;48.362;10.994;2023-04-25T11:24:53;16.50;;;4.75;;
6163;SDS011;3114;48.362;10.994;2023-04-25T11:27:20;11.85;;;4.05;;
6163;SDS011;3114;48.362;10.994;2023-04-25T11:29:49;3.75;;;1.98;;
6163;SDS011;3114;48.362;10.994;2023-04-25T11:32:18;4.90;;;2.20;;
6163;SDS011;3114;48.362;10.994;2023-04-25T11:34:45;2.70;;;1.27;;
6163;SDS011;3114;48.362;10.994;2023-04-25T11:37:13;2.85;;;1.20;;
6163;SDS011;3114;48.362;10.994;2023-04-25T11:39:44;1.70;;;1.20;;
6163;SDS011;3114;48.362;10.994;2023-04-25T11:42:12;1.75;;;1.10;;
6163;SDS011;3114;48.362;10.994;2023-04-25T11:44:39;0.52;;;0.52;;
6163;SDS011;3114;48.362;10.994;2023-04-25T11:47:06;0.35;;;0.35;;
6163;SDS011;3114;48.362;10.994;2023-04-25T11:49:35;0.88;;;0.40;;
6163;SDS011;3114;48.362;10.994;2023-04-25T11:52:02;0.85;;;0.60;;
6163;SDS011;3114;48.362;10.994;2023-04-25T11:54:29;0.80;;;0.80;;
6163;SDS011;3114;48.362;10.994;2023-04-25T11:56:56;2.10;;;1.30;;
6163;SDS011;3114;48.362;10.994;2023-04-25T11:59:23;1.67;;;1.37;;
6163;SDS011;3114;48.362;10.994;2023-04-25T12:01:51;2.17;;;1.23;;
6163;SDS011;3114;48.362;10.994;2023-04-25T12:04:19;0.73;;;0.73;;
6163;SDS011;3114;48.362;10.994;2023-04-25T12:06:49;3.00;;;0.80;;
6163;SDS011;3114;48.362;10.994;2023-04-25T12:09:17;2.00;;;1.00;;
6163;SDS011;3114;48.362;10.994;2023-04-25T12:11:46;0.60;;;0.60;;
6163;SDS011;3114;48.362;10.994;2023-04-25T12:14:20;0.63;;;0.63;;
6163;SDS011;3114;48.362;10.994;2023-04-25T12:16:49;0.93;;;0.87;;
6163;SDS011;3114;48.362;10.994;2023-04-25T12:19:16;0.70;;;0.70;;
6163;SDS011;3114;48.362;10.994;2023-04-25T12:21:45;0.90;;;0.80;;
6163;SDS011;3114;48.362;10.994;2023-04-25T12:24:14;1.60;;;1.03;;
6163;SDS011;3114;48.362;10.994;2023-04-25T12:26:50;1.30;;;1.20;;
6163;SDS011;3114;48.362;10.994;2023-04-25T12:29:18;3.43;;;1.30;;
6163;SDS011;3114;48.362;10.994;2023-04-25T12:31:46;2.80;;;1.10;;
6163;SDS011;3114;48.362;10.994;2023-04-25T12:34:13;1.40;;;1.30;;
6163;SDS011;3114;48.362;10.994;2023-04-25T12:36:40;2.13;;;1.58;;
6163;SDS011;3114;48.362;10.994;2023-04-25T12:39:07;1.75;;;1.27;;
6163;SDS011;3114;48.362;10.994;2023-04-25T12:41:36;1.48;;;1.38;;
6163;SDS011;3114;48.362;10.994;2023-04-25T12:44:03;1.00;;;0.90;;
6163;SDS011;3114;48.362;10.994;2023-04-25T12:46:30;1.30;;;1.20;;
6163;SDS011;3114;48.362;10.994;2023-04-25T12:48:57;0.95;;;0.85;;
6163;SDS011;3114;48.362;10.994;2023-04-25T12:51:24;1.98;;;0.98;;
6163;SDS011;3114;48.362;10.994;2023-04-25T12:53:52;2.78;;;1.20;;
6163;SDS011;3114;48.362;10.994;2023-04-25T12:56:19;1.20;;;0.70;;
6163;SDS011;3114;48.362;10.994;2023-04-25T12:58:48;0.97;;;0.87;;
6163;SDS011;3114;48.362;10.994;2023-04-25T13:01:14;1.10;;;0.97;;
6163;SDS011;3114;48.362;10.994;2023-04-25T13:03:41;2.40;;;1.30;;
6163;SDS011;3114;48.362;10.994;2023-04-25T13:06:08;2.00;;;0.97;;
6163;SDS011;3114;48.362;10.994;2023-04-25T13:08:35;1.73;;;0.90;;
6163;SDS011;3114;48.362;10.994;2023-04-25T13:11:03;0.97;;;0.97;;
6163;SDS011;3114;48.362;10.994;2023-04-25T13:13:31;0.67;;;0.67;;
6163;SDS011;3114;48.362;10.994;2023-04-25T13:16:01;2.72;;;1.50;;
6163;SDS011;3114;48.362;10.994;2023-04-25T13:18:29;1.15;;;0.70;;
6163;SDS011;3114;48.362;10.994;2023-04-25T13:20:57;1.17;;;0.40;;
6163;SDS011;3114;48.362;10.994;2023-04-25T13:23:24;0.53;;;0.50;;
6163;SDS011;3114;48.362;10.994;2023-04-25T13:25:52;0.75;;;0.55;;
6163;SDS011;3114;48.362;10.994;2023-04-25T13:28:20;0.80;;;0.60;;
6163;SDS011;3114;48.362;10.994;2023-04-25T13:30:47;0.63;;;0.43;;
6163;SDS011;3114;48.362;10.994;2023-04-25T13:33:16;1.45;;;0.60;;
6163;SDS011;3114;48.362;10.994;2023-04-25T13:35:42;0.63;;;0.63;;
6163;SDS011;3114;48.362;10.994;2023-04-25T13:38:11;0.55;;;0.50;;
6163;SDS011;3114;48.362;10.994;2023-04-25T13:40:38;2.28;;;0.70;;
6163;SDS011;3114;48.362;10.994;2023-04-25T13:43:05;1.13;;;0.90;;
6163;SDS011;3114;48.362;10.994;2023-04-25T13:45:32;0.73;;;0.73;;
6163;SDS011;3114;48.362;10.994;2023-04-25T13:47:59;2.25;;;1.17;;
6163;SDS011;3114;48.362;10.994;2023-04-25T13:50:28;1.98;;;0.90;;
6163;SDS011;3114;48.362;10.994;2023-04-25T13:52:55;1.42;;;1.17;;
6163;SDS011;3114;48.362;10.994;2023-04-25T13:55:22;1.15;;;1.05;;
6163;SDS011;3114;48.362;10.994;2023-04-25T13:57:48;1.40;;;1.20;;
6163;SDS011;3114;48.362;10.994;2023-04-25T14:00:16;2.87;;;1.20;;
6163;SDS011;3114;48.362;10.994;2023-04-25T14:02:43;1.33;;;1.23;;
6163;SDS011;3114;48.362;10.994;2023-04-25T14:05:10;3.13;;;1.60;;
6163;SDS011;3114;48.362;10.994;2023-04-25T14:07:39;1.45;;;1.35;;
6163;SDS011;3114;48.362;10.994;2023-04-25T14:10:06;2.17;;;1.45;;
6163;SDS011;3114;48.362;10.994;2023-04-25T14:12:33;1.42;;;1.33;;
6163;SDS011;3114;48.362;10.994;2023-04-25T14:15:00;2.72;;;1.50;;
6163;SDS011;3114;48.362;10.994;2023-04-25T14:17:27;0.95;;;0.95;;
6163;SDS011;3114;48.362;10.994;2023-04-25T14:19:54;1.40;;;1.27;;
6163;SDS011;3114;48.362;10.994;2023-04-25T14:22:21;1.20;;;1.00;;
6163;SDS011;3114;48.362;10.994;2023-04-25T14:24:49;1.90;;;1.20;;
6163;SDS011;3114;48.362;10.994;2023-04-25T14:27:16;2.10;;;1.42;;
6163;SDS011;3114;48.362;10.994;2023-04-25T14:29:42;2.20;;;1.50;;
6163;SDS011;3114;48.362;10.994;2023-04-25T14:32:09;1.50;;;1.40;;
6163;SDS011;3114;48.362;10.994;2023-04-25T14:34:36;1.53;;;1.20;;
6163;SDS011;3114;48.362;10.994;2023-04-25T14:37:03;3.00;;;1.37;;
6163;SDS011;3114;48.362;10.994;2023-04-25T14:39:30;1.50;;;1.40;;
6163;SDS011;3114;48.362;10.994;2023-04-25T14:41:58;1.63;;;1.47;;
6163;SDS011;3114;48.362;10.994;2023-04-25T14:44:26;1.30;;;1.20;;
6163;SDS011;3114;48.362;10.994;2023-04-25T14:46:53;1.70;;;1.30;;
6163;SDS011;3114;48.362;10.994;2023-04-25T14:49:20;1.90;;;1.50;;
6163;SDS011;3114;48.362;10.994;2023-04-25T14:51:46;2.80;;;1.70;;
6163;SDS011;3114;48.362;10.994;2023-04-25T14:54:14;1.67;;;1.43;;
6163;SDS011;3114;48.362;10.994;2023-04-25T14:56:41;2.60;;;1.60;;
6163;SDS011;3114;48.362;10.994;2023-04-25T14:59:10;2.20;;;2.00;;
6163;SDS011;3114;48.362;10.994;2023-04-25T15:01:36;1.98;;;1.77;;
6163;SDS011;3114;48.362;10.994;2023-04-25T15:04:03;2.90;;;1.90;;
6163;SDS011;3114;48.362;10.994;2023-04-25T15:06:30;2.33;;;1.57;;
6163;SDS011;3114;48.362;10.994;2023-04-25T15:08:58;2.60;;;2.00;;